Time;durP1;ratioP1;P1;durP2;ratioP2;P2;SDS_P1;SDS_P2;PMS_P1;PMS_P2;Temp;Humidity;BMP_temperature;BMP_pressure;BME280_temperature;BME280_humidity;BME280_pressure;Samples;Min_cycle;Max_cycle;Signal;HPM_P1;HPM_P2
2022/11/11 00:03:20;;;;;;;7.43;2.08;;;;;;;7.19;100.00;99719.41;15279118;19;20681;-63
2022/11/11 00:09:06;;;;;;;6.05;1.85;;;;;;;7.15;100.00;99712.53;15272105;19;20034;-64
2022/11/11 00:14:49;;;;;;;8.27;2.08;;;;;;;7.13;100.00;99717.13;15268863;19;20018;-61
2022/11/11 00:26:45;;;;;;;6.22;1.77;;;;;;;6.98;100.00;99717.25;15272896;19;20011;-62
2022/11/11 00:32:29;;;;;;;4.28;1.60;;;;;;;6.93;100.00;99733.66;15278151;19;20031;-62
2022/11/11 00:38:44;;;;;;;5.30;1.80;;;;;;;6.92;100.00;99748.00;15275784;19;20023;-62
2022/11/11 00:44:24;;;;;;;6.10;2.00;;;;;;;6.92;100.00;99741.78;15277942;19;20010;-63
2022/11/11 00:56:04;;;;;;;4.22;1.83;;;;;;;6.91;100.00;99750.78;15273667;19;20018;-61
2022/11/11 01:01:50;;;;;;;5.57;1.75;;;;;;;6.85;100.00;99756.56;15278075;19;20018;-61
2022/11/11 01:07:33;;;;;;;5.20;1.75;;;;;;;6.81;100.00;99747.88;15276346;19;20018;-63
2022/11/11 01:13:24;;;;;;;5.00;1.70;;;;;;;6.77;100.00;99744.53;15274999;19;20030;-62
2022/11/11 01:19:10;;;;;;;5.07;1.90;;;;;;;6.80;100.00;99738.13;15267080;19;20507;-62
2022/11/11 01:24:53;;;;;;;5.15;1.90;;;;;;;6.75;100.00;99738.44;15275170;19;20090;-61
2022/11/11 01:30:38;;;;;;;7.75;1.90;;;;;;;6.74;100.00;99734.06;15272812;19;20010;-62
2022/11/11 01:36:26;;;;;;;5.90;1.98;;;;;;;6.77;100.00;99735.66;15270775;19;20018;-62
2022/11/11 01:42:10;;;;;;;6.53;2.10;;;;;;;6.77;100.00;99736.50;15274480;19;20014;-61
2022/11/11 01:54:10;;;;;;;7.20;2.10;;;;;;;6.74;100.00;99742.09;15268118;19;20015;-61
2022/11/11 01:59:59;;;;;;;5.75;2.30;;;;;;;6.72;100.00;99744.00;15270915;19;20462;-62
2022/11/11 02:05:45;;;;;;;7.45;2.10;;;;;;;6.76;100.00;99733.94;15273812;19;20014;-61
2022/11/11 02:17:31;;;;;;;;;;;;;;;6.70;100.00;99727.19;15270068;19;20015;-62
2022/11/11 02:23:18;;;;;;;6.68;2.28;;;;;;;6.66;100.00;99741.72;15270364;19;20340;-62
2022/11/11 02:29:18;;;;;;;5.53;2.08;;;;;;;6.83;100.00;99731.69;15270715;19;20018;-61
2022/11/11 02:35:02;;;;;;;5.85;1.90;;;;;;;6.91;100.00;99746.28;15271671;19;20022;-62
2022/11/11 02:46:46;;;;;;;7.63;2.20;;;;;;;7.04;100.00;99746.28;15269105;19;20015;-62
2022/11/11 02:52:30;;;;;;;6.45;1.95;;;;;;;7.11;100.00;99749.41;15271540;19;20018;-63
2022/11/11 02:58:14;;;;;;;5.72;1.80;;;;;;;7.21;100.00;99745.13;15264987;19;20510;-64
2022/11/11 03:04:01;;;;;;;5.38;2.00;;;;;;;7.21;100.00;99739.75;15270856;19;20488;-62
2022/11/11 03:09:44;;;;;;;4.43;1.90;;;;;;;7.24;100.00;99750.28;15264885;19;20082;-60
2022/11/11 03:15:27;;;;;;;5.90;1.90;;;;;;;7.27;100.00;99759.91;15268493;19;20014;-61
2022/11/11 03:21:14;;;;;;;5.55;1.90;;;;;;;7.29;100.00;99758.00;15267613;19;20102;-64
2022/11/11 03:27:17;;;;;;;4.60;1.67;;;;;;;7.38;100.00;99762.72;15265024;19;20014;-63
2022/11/11 03:33:00;;;;;;;4.15;1.90;;;;;;;7.42;100.00;99759.81;15264972;19;20014;-64
2022/11/11 03:38:46;;;;;;;4.57;1.70;;;;;;;7.42;100.00;99762.50;15265577;19;20703;-62
2022/11/11 03:44:30;;;;;;;6.68;1.88;;;;;;;7.37;100.00;99760.13;15278570;19;20010;-65
2022/11/11 03:50:15;;;;;;;5.20;1.80;;;;;;;7.33;100.00;99764.88;15280112;19;20014;-64
2022/11/11 03:56:01;;;;;;;3.90;1.70;;;;;;;7.27;100.00;99773.31;15280189;19;20018;-62
2022/11/11 04:31:31;;;;;;;5.70;2.15;;;;;;;6.79;100.00;99785.47;15273493;19;20030;-60
2022/11/11 04:37:14;;;;;;;5.82;2.13;;;;;;;6.67;100.00;99783.63;15269207;19;20022;-59
2022/11/11 04:42:57;;;;;;;6.50;2.25;;;;;;;6.56;100.00;99781.69;15274669;19;20053;-61
2022/11/11 04:48:43;;;;;;;5.03;2.00;;;;;;;6.48;100.00;99774.16;15272044;19;20076;-59
2022/11/11 04:54:26;;;;;;;6.05;2.17;;;;;;;6.46;100.00;99780.56;15272696;19;20363;-58
2022/11/11 05:00:09;;;;;;;3.08;1.70;;;;;;;6.43;100.00;99781.63;15274026;19;20038;-60
2022/11/11 05:11:52;;;;;;;5.13;1.75;;;;;;;6.46;100.00;99772.53;15277639;19;20150;-55
2022/11/11 05:29:45;;;;;;;3.78;1.90;;;;;;;6.69;100.00;99767.47;15271626;19;20018;-59
2022/11/11 05:35:28;;;;;;;4.43;1.70;;;;;;;6.71;100.00;99766.41;15263692;19;20032;-61
2022/11/11 05:41:15;;;;;;;4.95;1.63;;;;;;;6.77;100.00;99760.59;15263982;19;20015;-60
2022/11/11 05:46:58;;;;;;;4.30;1.83;;;;;;;6.73;100.00;99774.31;15266455;19;20502;-59
2022/11/11 05:52:48;;;;;;;3.38;1.60;;;;;;;6.67;100.00;99778.25;15273349;19;20018;-59
2022/11/11 05:58:33;;;;;;;3.40;1.60;;;;;;;6.65;100.00;99780.19;15270019;19;20022;-61
2022/11/11 06:04:16;;;;;;;3.20;1.58;;;;;;;6.68;100.00;99785.34;15273167;19;20439;-59
2022/11/11 06:10:29;;;;;;;4.90;1.65;;;;;;;6.89;100.00;99798.25;15266848;19;20093;-60
2022/11/11 06:16:06;;;;;;;4.05;1.80;;;;;;;7.02;100.00;99788.41;15272847;19;20467;-60
2022/11/11 06:22:00;;;;;;;3.55;1.70;;;;;;;7.02;100.00;99798.28;15272841;19;20010;-61
2022/11/11 06:27:43;;;;;;;5.40;1.70;;;;;;;6.94;100.00;99786.25;15269297;19;20018;-55
2022/11/11 06:33:29;;;;;;;3.33;1.58;;;;;;;6.84;100.00;99781.63;15273556;19;20022;-59
2022/11/11 06:39:12;;;;;;;5.00;1.95;;;;;;;6.76;100.00;99788.34;15269782;19;20360;-61
2022/11/11 06:44:55;;;;;;;4.32;1.70;;;;;;;6.74;100.00;99784.94;15265145;19;20014;-57
2022/11/11 06:50:41;;;;;;;3.80;1.70;;;;;;;6.79;100.00;99792.66;15268226;19;20019;-58
2022/11/11 06:56:24;;;;;;;4.70;1.60;;;;;;;6.86;100.00;99806.50;15266379;19;20014;-58
2022/11/11 07:02:08;;;;;;;2.95;1.30;;;;;;;6.93;100.00;99805.13;15272214;19;20022;-60
2022/11/11 07:07:54;;;;;;;3.20;1.30;;;;;;;7.04;100.00;99796.38;15269805;19;20530;-60
2022/11/11 07:13:38;;;;;;;2.38;1.23;;;;;;;7.15;100.00;99792.94;15269142;19;20022;-56
2022/11/11 07:19:21;;;;;;;2.35;1.17;;;;;;;7.22;100.00;99802.28;15274809;19;20018;-58
2022/11/11 07:25:09;;;;;;;2.20;1.00;;;;;;;7.37;100.00;99798.53;15284343;19;20016;-62
2022/11/11 07:30:58;;;;;;;2.10;0.93;;;;;;;7.46;100.00;99798.88;15280507;19;20547;-61
2022/11/11 07:36:41;;;;;;;2.38;1.10;;;;;;;7.59;100.00;99797.00;15279928;19;20022;-61
2022/11/11 07:42:26;;;;;;;3.85;1.20;;;;;;;7.65;100.00;99801.09;15285291;19;21308;-61
2022/11/11 07:48:09;;;;;;;4.45;1.15;;;;;;;7.74;100.00;99807.63;15275517;19;20022;-61
2022/11/11 07:53:52;;;;;;;4.68;1.33;;;;;;;7.80;100.00;99820.63;15283992;19;20015;-61
2022/11/11 07:59:38;;;;;;;3.63;1.08;;;;;;;7.82;100.00;99821.38;15277916;19;20022;-61
2022/11/11 08:05:21;;;;;;;2.72;1.10;;;;;;;7.86;100.00;99826.41;15280978;19;20097;-60
2022/11/11 08:11:04;;;;;;;2.28;1.10;;;;;;;7.92;100.00;99830.50;15277594;19;20430;-61
2022/11/11 08:16:50;;;;;;;2.95;1.00;;;;;;;8.00;100.00;99844.22;15278251;19;20018;-60
2022/11/11 08:22:38;;;;;;;4.60;1.30;;;;;;;8.10;100.00;99854.28;15282177;19;20045;-58
2022/11/11 08:28:42;;;;;;;1.63;1.00;;;;;;;8.25;100.00;99863.06;15277875;19;20019;-60
2022/11/11 08:34:28;;;;;;;3.17;1.17;;;;;;;8.38;100.00;99863.03;15281536;19;20018;-60
2022/11/11 08:40:12;;;;;;;2.42;1.00;;;;;;;8.53;100.00;99870.00;15277373;19;20038;-59
2022/11/11 08:45:56;;;;;;;2.83;0.90;;;;;;;8.67;100.00;99873.50;15279427;19;20015;-60
2022/11/11 08:51:41;;;;;;;3.92;1.10;;;;;;;8.78;100.00;99870.88;15275503;19;20019;-58
2022/11/11 08:57:25;;;;;;;2.28;1.00;;;;;;;8.91;100.00;99874.34;15272394;19;20379;-58
2022/11/11 09:03:09;;;;;;;3.33;0.90;;;;;;;9.04;100.00;99881.50;15279145;19;20353;-59
2022/11/11 09:08:55;;;;;;;2.42;0.90;;;;;;;9.15;100.00;99889.63;15275504;19;20023;-58
2022/11/11 09:14:38;;;;;;;2.28;1.10;;;;;;;9.26;100.00;99894.19;15277929;19;20073;-57
2022/11/11 09:20:22;;;;;;;2.80;1.13;;;;;;;9.36;100.00;99900.59;15274791;19;20421;-56
2022/11/11 09:26:08;;;;;;;4.03;1.10;;;;;;;9.45;100.00;99899.03;15272231;19;20398;-57
2022/11/11 09:31:51;;;;;;;2.78;1.23;;;;;;;9.58;100.00;99911.53;15273734;19;20030;-58
2022/11/11 09:37:34;;;;;;;1.88;0.90;;;;;;;9.69;100.00;99909.72;15272328;19;20022;-60
2022/11/11 09:43:34;;;;;;;2.47;1.10;;;;;;;9.85;100.00;99904.00;15274328;19;20502;-60
2022/11/11 09:49:44;;;;;;;1.80;1.20;;;;;;;10.03;100.00;99915.16;15274182;19;20462;-60
2022/11/11 09:55:33;;;;;;;3.25;1.10;;;;;;;10.15;100.00;99899.88;15270335;19;20015;-60
2022/11/11 10:01:24;;;;;;;3.10;1.20;;;;;;;10.30;100.00;99891.53;15276370;19;20018;-59
2022/11/11 10:07:16;;;;;;;2.35;1.00;;;;;;;10.45;100.00;99900.28;15271675;19;20633;-60
2022/11/11 10:13:03;;;;;;;2.67;1.20;;;;;;;10.69;100.00;99894.69;15275378;19;20026;-61
2022/11/11 10:19:01;;;;;;;2.05;1.17;;;;;;;10.88;100.00;99895.88;15270086;19;20006;-60
2022/11/11 10:24:48;;;;;;;1.77;0.90;;;;;;;11.12;100.00;99893.00;15272873;19;20022;-60
2022/11/11 10:30:40;;;;;;;3.25;1.27;;;;;;;11.36;100.00;99879.25;15266945;19;20593;-61
2022/11/11 10:36:27;;;;;;;;;;;;;;;11.57;100.00;99875.72;15271105;19;20026;-60
2022/11/11 10:42:23;;;;;;;2.78;1.00;;;;;;;11.80;100.00;99870.19;15274569;19;20274;-62
2022/11/11 10:48:11;;;;;;;1.98;1.00;;;;;;;12.03;100.00;99865.47;15270725;19;20015;-60
2022/11/11 10:54:08;;;;;;;2.30;0.93;;;;;;;12.23;100.00;99861.03;15267905;19;20014;-61
2022/11/11 10:59:55;;;;;;;1.98;0.80;;;;;;;12.37;100.00;99872.44;15263119;19;20022;-61
2022/11/11 11:05:52;;;;;;;2.15;0.80;;;;;;;12.55;100.00;99876.19;15268642;19;20011;-61
2022/11/11 11:11:44;;;;;;;1.40;0.70;;;;;;;12.73;100.00;99862.00;15271896;19;20034;-60
2022/11/11 11:17:32;;;;;;;2.38;0.80;;;;;;;12.92;100.00;99853.06;15266300;19;20007;-61
2022/11/11 11:23:38;;;;;;;1.95;0.70;;;;;;;13.06;100.00;99851.78;15269460;19;20014;-61
2022/11/11 11:29:33;;;;;;;1.70;0.60;;;;;;;13.20;100.00;99842.38;15265102;19;20615;-60
2022/11/11 11:35:32;;;;;;;1.60;0.73;;;;;;;13.35;100.00;99856.31;15260949;19;20371;-57
2022/11/11 11:41:16;;;;;;;1.80;0.70;;;;;;;13.45;100.00;99835.56;15269548;19;20014;-60
2022/11/11 11:47:14;;;;;;;2.40;0.90;;;;;;;13.54;100.00;99834.69;15267926;19;20010;-60
2022/11/11 11:53:08;;;;;;;2.35;1.10;;;;;;;13.71;100.00;99830.38;15268196;19;20387;-60
2022/11/11 11:59:00;;;;;;;1.98;0.93;;;;;;;13.92;100.00;99833.88;15263819;19;20010;-61
2022/11/11 12:05:16;;;;;;;1.85;0.80;;;;;;;14.01;100.00;99825.69;15266232;19;20007;-61
2022/11/11 12:11:07;;;;;;;1.58;0.80;;;;;;;14.17;100.00;99833.19;15276856;19;20018;-60
2022/11/11 12:16:58;;;;;;;1.75;0.73;;;;;;;14.38;100.00;99821.25;15280333;19;20348;-60
2022/11/11 12:23:02;;;;;;;1.63;0.70;;;;;;;14.42;100.00;99828.06;15281653;19;20006;-60
2022/11/11 12:29:00;;;;;;;0.90;0.60;;;;;;;14.51;100.00;99810.03;15276548;19;20018;-60
2022/11/11 12:35:07;;;;;;;1.52;0.80;;;;;;;14.64;100.00;99804.25;15281374;19;20010;-60
2022/11/11 12:41:05;;;;;;;1.58;0.75;;;;;;;14.69;100.00;99798.41;15271505;19;20015;-58
2022/11/11 12:47:16;;;;;;;1.13;0.60;;;;;;;14.78;100.00;99794.75;15277942;19;20626;-60
2022/11/11 12:53:23;;;;;;;1.85;0.52;;;;;;;14.98;100.00;99790.03;15279878;19;20704;-61
2022/11/11 12:59:19;;;;;;;0.90;0.60;;;;;;;15.15;100.00;99788.28;15276999;19;20074;-61
2022/11/11 13:05:14;;;;;;;0.85;0.52;;;;;;;15.30;100.00;99782.28;15278448;19;20034;-60
2022/11/11 13:11:05;;;;;;;5.90;0.70;;;;;;;15.33;100.00;99781.97;15271334;19;20419;-61
2022/11/11 13:16:51;;;;;;;1.20;0.63;;;;;;;15.51;100.00;99779.19;15275220;19;20019;-61
2022/11/11 13:22:34;;;;;;;2.28;0.60;;;;;;;15.50;100.00;99777.50;15277805;19;20010;-61
2022/11/11 13:28:27;;;;;;;1.52;0.60;;;;;;;15.44;100.00;99776.28;15273113;19;20070;-61
2022/11/11 13:34:16;;;;;;;1.08;0.50;;;;;;;15.39;100.00;99787.63;15277436;19;20018;-59
2022/11/11 13:40:01;;;;;;;3.65;0.70;;;;;;;15.37;100.00;99776.06;15274421;19;20014;-61
2022/11/11 13:45:51;;;;;;;1.42;0.60;;;;;;;15.50;100.00;99772.94;15271807;19;20014;-61
2022/11/11 13:51:43;;;;;;;1.92;0.68;;;;;;;15.70;100.00;99787.13;15276484;19;20014;-59
2022/11/11 13:57:30;;;;;;;2.27;0.70;;;;;;;16.03;100.00;99794.63;15272851;19;20019;-61
2022/11/11 14:03:45;;;;;;;1.45;0.70;;;;;;;16.20;100.00;99792.81;15275969;19;20010;-61
2022/11/11 14:09:59;;;;;;;0.98;0.60;;;;;;;16.24;100.00;99790.63;15272500;19;20603;-60
2022/11/11 14:15:47;;;;;;;1.33;0.80;;;;;;;16.12;100.00;99796.34;15268890;19;20073;-60
2022/11/11 14:21:48;;;;;;;1.15;0.88;;;;;;;15.89;100.00;99782.50;15273545;19;20014;-60
2022/11/11 14:27:40;;;;;;;1.98;0.80;;;;;;;15.70;100.00;99787.13;15271098;19;20070;-59
2022/11/11 14:33:50;;;;;;;2.53;0.80;;;;;;;15.42;100.00;99789.16;15270319;19;20360;-60
2022/11/11 14:39:39;;;;;;;3.17;0.80;;;;;;;15.33;100.00;99788.25;15268541;19;20014;-60
2022/11/11 14:46:07;;;;;;;1.73;1.08;;;;;;;15.13;100.00;99795.72;15270808;19;20101;-62
2022/11/11 14:52:03;;;;;;;1.40;0.95;;;;;;;14.95;100.00;99796.59;15271791;19;20022;-62
2022/11/11 14:57:48;;;;;;;2.58;0.90;;;;;;;14.80;100.00;99798.16;15268233;19;20018;-59
2022/11/11 15:03:36;;;;;;;0.90;0.70;;;;;;;14.54;100.00;99790.75;15270693;19;20014;-62
2022/11/11 15:09:40;;;;;;;1.67;0.95;;;;;;;14.35;100.00;99804.44;15269486;19;20687;-59
2022/11/11 15:15:27;;;;;;;1.42;0.80;;;;;;;14.12;100.00;99811.09;15270016;19;20011;-61
2022/11/11 15:21:17;;;;;;;1.67;0.70;;;;;;;13.86;100.00;99821.78;15263007;19;20018;-59
2022/11/11 15:27:17;;;;;;;1.58;1.00;;;;;;;13.57;100.00;99820.00;15269456;19;20015;-60
2022/11/11 15:33:13;;;;;;;1.25;0.90;;;;;;;13.43;100.00;99832.16;15266780;19;20019;-61
2022/11/11 15:38:58;;;;;;;1.55;0.93;;;;;;;13.26;100.00;99834.53;15271505;19;20018;-60
2022/11/11 15:44:45;;;;;;;1.70;0.90;;;;;;;13.07;100.00;99834.56;15284928;19;20451;-60
2022/11/11 15:50:35;;;;;;;1.40;1.05;;;;;;;12.90;100.00;99830.72;15276007;19;20011;-59
2022/11/11 15:56:19;;;;;;;2.00;1.23;;;;;;;12.75;100.00;99841.94;15282582;19;20010;-59
2022/11/11 16:02:09;;;;;;;2.65;1.10;;;;;;;12.60;100.00;99837.94;15282958;19;20018;-60
2022/11/11 16:07:55;;;;;;;2.40;1.60;;;;;;;12.49;100.00;99830.81;15280781;19;20070;-60
2022/11/11 16:13:41;;;;;;;2.08;1.48;;;;;;;12.33;100.00;99834.88;15282240;19;20507;-60
2022/11/11 16:19:41;;;;;;;4.43;1.70;;;;;;;12.14;100.00;99835.66;15278431;19;20014;-59
2022/11/11 16:25:26;;;;;;;2.55;1.45;;;;;;;11.91;100.00;99834.13;15275337;19;20107;-59
2022/11/11 16:31:28;;;;;;;3.60;1.40;;;;;;;11.72;100.00;99838.44;15279255;19;20014;-60
2022/11/11 16:37:22;;;;;;;1.85;1.40;;;;;;;11.52;100.00;99840.16;15278769;19;20014;-58
2022/11/11 16:43:24;;;;;;;2.13;1.10;;;;;;;11.26;100.00;99837.84;15280549;19;20019;-59
2022/11/11 16:49:21;;;;;;;2.58;1.30;;;;;;;11.01;100.00;99841.78;15277664;19;20018;-61
2022/11/11 16:55:09;;;;;;;1.60;1.00;;;;;;;10.81;100.00;99838.06;15275264;19;20581;-60
2022/11/11 17:01:00;;;;;;;1.02;0.93;;;;;;;10.61;100.00;99845.97;15275799;19;20014;-58
2022/11/11 17:06:54;;;;;;;;;;;;;;;10.40;100.00;99853.97;15278506;19;20086;-60
2022/11/11 17:12:41;;;;;;;1.40;0.90;;;;;;;10.27;100.00;99843.31;15280269;19;19978;-61
2022/11/11 17:18:24;;;;;;;2.45;1.10;;;;;;;10.21;100.00;99851.88;15275900;19;20014;-61
2022/11/11 17:24:06;;;;;;;1.60;1.00;;;;;;;10.11;100.00;99860.69;15277640;19;20014;-60
2022/11/11 17:29:59;;;;;;;1.98;1.10;;;;;;;10.00;100.00;99858.00;15271879;19;20018;-61
2022/11/11 17:35:41;;;;;;;;;;;;;;;9.94;100.00;99853.09;15276864;19;20074;-58
2022/11/11 17:41:25;;;;;;;1.63;1.15;;;;;;;9.86;100.00;99840.25;15274179;19;19915;-58
2022/11/11 17:47:10;;;;;;;1.92;1.20;;;;;;;9.70;100.00;99856.78;15273425;19;20014;-59
2022/11/11 17:52:54;;;;;;;1.20;0.95;;;;;;;9.62;100.00;99853.81;15274458;19;20045;-61
2022/11/11 17:58:38;;;;;;;3.10;1.48;;;;;;;9.55;100.00;99856.97;15273436;19;20427;-62
2022/11/11 18:04:24;;;;;;;1.80;1.10;;;;;;;9.40;100.00;99866.22;15246605;19;20019;-61
2022/11/11 18:10:09;;;;;;;1.45;1.10;;;;;;;9.31;100.00;99872.31;15272425;19;20010;-58
2022/11/11 18:15:53;;;;;;;2.05;1.35;;;;;;;9.27;100.00;99876.22;15274485;19;20010;-59
2022/11/11 18:21:43;;;;;;;2.80;1.60;;;;;;;9.23;100.00;99876.44;15271680;19;20021;-60
2022/11/11 18:27:27;;;;;;;3.70;1.67;;;;;;;9.19;100.00;99882.16;15273146;19;20018;-59
2022/11/11 18:33:16;;;;;;;3.17;1.70;;;;;;;9.20;100.00;99891.94;15265067;19;20107;-61
2022/11/11 18:39:01;;;;;;;3.72;1.58;;;;;;;9.17;100.00;99887.69;15268092;19;20014;-60
2022/11/11 18:44:45;;;;;;;2.63;1.33;;;;;;;9.09;100.00;99885.56;15267857;19;20364;-61
2022/11/11 18:50:29;;;;;;;2.10;1.20;;;;;;;9.04;100.00;99885.06;15263778;19;20023;-62
2022/11/11 18:56:17;;;;;;;2.83;1.50;;;;;;;8.97;100.00;99889.16;15267893;19;20011;-58
2022/11/11 19:01:59;;;;;;;1.77;1.30;;;;;;;8.89;100.00;99895.13;15266452;19;20014;-61
2022/11/11 19:07:43;;;;;;;1.98;1.00;;;;;;;8.79;100.00;99886.91;15261705;19;20011;-59
2022/11/11 19:13:29;;;;;;;3.75;1.13;;;;;;;8.73;100.00;99895.41;15269112;19;20472;-63
2022/11/11 19:19:14;;;;;;;1.38;0.90;;;;;;;8.67;100.00;99900.34;15279377;19;20011;-64
2022/11/11 19:24:57;;;;;;;1.73;1.15;;;;;;;8.62;100.00;99901.56;15279063;19;20555;-60
2022/11/11 19:30:44;;;;;;;3.85;3.20;;;;;;;8.58;100.00;99907.28;15277315;19;20030;-61
2022/11/11 19:36:29;;;;;;;2.83;1.40;;;;;;;8.53;100.00;99915.66;15276353;19;20098;-57
2022/11/11 19:42:13;;;;;;;1.77;1.00;;;;;;;8.51;100.00;99920.31;15277842;19;20459;-54
2022/11/11 19:47:59;;;;;;;3.30;1.17;;;;;;;8.45;100.00;99913.53;15279789;19;20014;-55
2022/11/11 19:53:43;;;;;;;4.80;1.30;;;;;;;8.41;100.00;99911.16;15283430;19;20018;-56
2022/11/11 19:59:31;;;;;;;2.80;1.02;;;;;;;8.36;100.00;99916.00;15279665;19;20555;-55
2022/11/11 20:05:18;;;;;;;1.90;1.17;;;;;;;8.30;100.00;99925.34;15283105;19;20010;-55
2022/11/11 20:11:07;;;;;;;1.95;1.27;;;;;;;8.25;100.00;99936.44;15273213;19;20991;-57
2022/11/11 20:16:50;;;;;;;4.47;1.20;;;;;;;8.21;100.00;99931.38;15281423;19;20014;-54
2022/11/11 20:22:35;;;;;;;2.22;1.25;;;;;;;8.17;100.00;99936.97;15278978;19;20014;-57
2022/11/11 20:28:19;;;;;;;2.22;1.30;;;;;;;8.16;100.00;99945.13;15278992;19;20019;-54
2022/11/11 20:34:08;;;;;;;2.00;1.10;;;;;;;8.14;100.00;99947.06;15277195;19;20744;-57
2022/11/11 20:39:55;;;;;;;2.05;1.10;;;;;;;8.11;100.00;99952.63;15278298;19;20010;-56
2022/11/11 20:45:39;;;;;;;2.63;0.90;;;;;;;8.07;100.00;99956.50;15276857;19;20019;-54
2022/11/11 20:51:23;;;;;;;1.45;0.93;;;;;;;8.02;100.00;99959.50;15283423;19;20018;-56
2022/11/11 20:57:12;;;;;;;2.65;1.10;;;;;;;7.96;100.00;99960.78;15279246;19;20014;-55
2022/11/11 21:02:55;;;;;;;1.95;1.27;;;;;;;7.93;100.00;99965.53;15276847;19;20014;-53
2022/11/11 21:08:39;;;;;;;1.70;0.98;;;;;;;7.92;100.00;99970.03;15278598;19;20010;-55
2022/11/11 21:14:24;;;;;;;3.75;1.10;;;;;;;7.91;100.00;99971.00;15275489;19;20478;-52
2022/11/11 21:20:08;;;;;;;1.10;1.00;;;;;;;7.88;100.00;99973.88;15277856;19;20479;-51
2022/11/11 21:25:51;;;;;;;2.08;1.00;;;;;;;7.85;100.00;99977.66;15277996;19;20022;-56
2022/11/11 21:31:40;;;;;;;2.38;1.20;;;;;;;7.82;100.00;99974.31;15277585;19;20014;-59
2022/11/11 21:37:23;;;;;;;2.40;1.00;;;;;;;7.79;100.00;99979.91;15276226;19;20014;-57
2022/11/11 21:43:06;;;;;;;1.52;1.08;;;;;;;7.75;100.00;99978.38;15277497;19;20015;-54
2022/11/11 21:48:54;;;;;;;1.50;1.00;;;;;;;7.69;100.00;99985.91;15272249;19;20034;-56
2022/11/11 21:54:37;;;;;;;1.90;1.10;;;;;;;7.65;100.00;99984.38;15276846;19;20429;-54
2022/11/11 22:00:21;;;;;;;1.70;1.00;;;;;;;7.63;100.00;99986.28;15274516;19;20014;-56
2022/11/11 22:06:10;;;;;;;1.77;0.98;;;;;;;7.61;100.00;99990.91;15275799;19;20074;-54
2022/11/11 22:11:47;;;;;;;1.55;1.20;;;;;;;7.56;100.00;99987.69;15277062;19;20010;-55
2022/11/11 22:17:31;;;;;;;2.08;1.20;;;;;;;7.50;100.00;99985.41;15273782;19;20456;-57
2022/11/11 22:23:19;;;;;;;1.20;1.10;;;;;;;7.47;100.00;99991.84;15276687;19;20018;-56
2022/11/11 22:29:02;;;;;;;2.60;1.10;;;;;;;7.42;100.00;99993.09;15277842;19;20018;-57
2022/11/11 22:34:52;;;;;;;3.13;1.10;;;;;;;7.39;100.00;99994.19;15299464;19;20006;-57
2022/11/11 22:40:38;;;;;;;2.05;0.93;;;;;;;7.36;100.00;99994.38;15323290;19;20456;-57
2022/11/11 22:46:24;;;;;;;1.10;1.00;;;;;;;7.32;100.00;99988.38;15270816;19;20019;-57
2022/11/11 22:52:07;;;;;;;2.25;0.88;;;;;;;7.30;100.00;99990.28;15268905;19;20336;-55
2022/11/11 22:57:53;;;;;;;2.47;1.00;;;;;;;7.27;100.00;99984.25;15269424;19;20053;-58
2022/11/11 23:03:36;;;;;;;1.60;0.73;;;;;;;7.23;100.00;99984.47;15270101;19;20082;-54
2022/11/11 23:09:19;;;;;;;1.90;1.00;;;;;;;7.20;100.00;99983.81;15268985;19;20074;-57
2022/11/11 23:15:04;;;;;;;1.67;1.00;;;;;;;7.20;100.00;99995.38;15269787;19;20010;-57
2022/11/11 23:20:48;;;;;;;1.90;1.02;;;;;;;7.16;100.00;99983.16;15267642;19;20525;-57
2022/11/11 23:26:34;;;;;;;2.72;0.90;;;;;;;7.17;100.00;99989.38;15262261;19;20281;-57
2022/11/11 23:32:20;;;;;;;1.42;0.90;;;;;;;7.16;100.00;99987.63;15267640;19;20085;-57
2022/11/11 23:38:03;;;;;;;1.73;0.80;;;;;;;7.16;100.00;99987.63;15266727;19;20014;-55
2022/11/11 23:43:46;;;;;;;1.55;1.00;;;;;;;7.15;100.00;99983.25;15268933;19;20008;-57
2022/11/11 23:49:31;;;;;;;1.20;0.90;;;;;;;7.12;100.00;99986.13;15264042;19;20419;-54
2022/11/11 23:55:16;;;;;;;1.88;0.90;;;;;;;7.08;100.00;99988.13;15261691;19;20014;-56
